sensor_id;sensor_type;location;lat;lon;timestamp;P1;durP1;ratioP1;P2;durP2;ratioP2
45686;SDS011;31399;51.176;7.776;2023-08-20T01:03:53;7.57;;;4.93;;
45686;SDS011;31399;51.176;7.776;2023-08-20T01:26:06;13.52;;;4.90;;
45686;SDS011;31399;51.176;7.776;2023-08-20T01:37:41;8.05;;;5.03;;
45686;SDS011;31399;51.176;7.776;2023-08-20T02:58:14;9.90;;;4.80;;
45686;SDS011;31399;51.176;7.776;2023-08-20T03:56:17;13.20;;;7.03;;
45686;SDS011;31399;51.176;7.776;2023-08-20T04:17:44;13.07;;;5.28;;
45686;SDS011;31399;51.176;7.776;2023-08-20T04:26:20;9.70;;;6.03;;
45686;SDS011;31399;51.176;7.776;2023-08-20T04:29:02;7.00;;;5.07;;
45686;SDS011;31399;51.176;7.776;2023-08-20T04:32:14;9.38;;;5.20;;
45686;SDS011;31399;51.176;7.776;2023-08-20T04:34:47;12.10;;;5.88;;
45686;SDS011;31399;51.176;7.776;2023-08-20T04:37:16;11.02;;;6.32;;
45686;SDS011;31399;51.176;7.776;2023-08-20T04:39:43;10.57;;;6.30;;
45686;SDS011;31399;51.176;7.776;2023-08-20T04:42:13;10.13;;;6.88;;
45686;SDS011;31399;51.176;7.776;2023-08-20T04:44:40;10.18;;;7.32;;
45686;SDS011;31399;51.176;7.776;2023-08-20T04:47:11;9.75;;;6.90;;
45686;SDS011;31399;51.176;7.776;2023-08-20T04:49:43;10.00;;;6.18;;
45686;SDS011;31399;51.176;7.776;2023-08-20T04:52:11;12.35;;;6.47;;
45686;SDS011;31399;51.176;7.776;2023-08-20T04:54:38;10.50;;;6.53;;
45686;SDS011;31399;51.176;7.776;2023-08-20T04:57:05;8.50;;;5.22;;
45686;SDS011;31399;51.176;7.776;2023-08-20T04:59:32;8.43;;;5.80;;
45686;SDS011;31399;51.176;7.776;2023-08-20T05:01:58;8.48;;;5.32;;
45686;SDS011;31399;51.176;7.776;2023-08-20T05:04:25;8.73;;;5.55;;
45686;SDS011;31399;51.176;7.776;2023-08-20T05:06:52;6.85;;;4.75;;
45686;SDS011;31399;51.176;7.776;2023-08-20T05:09:22;10.25;;;5.32;;
45686;SDS011;31399;51.176;7.776;2023-08-20T05:11:50;9.70;;;5.40;;
45686;SDS011;31399;51.176;7.776;2023-08-20T05:14:18;9.15;;;5.72;;
45686;SDS011;31399;51.176;7.776;2023-08-20T05:16:45;9.60;;;4.75;;
45686;SDS011;31399;51.176;7.776;2023-08-20T05:19:14;12.95;;;6.95;;
45686;SDS011;31399;51.176;7.776;2023-08-20T05:21:44;8.43;;;5.97;;
45686;SDS011;31399;51.176;7.776;2023-08-20T05:24:11;9.10;;;5.68;;
45686;SDS011;31399;51.176;7.776;2023-08-20T05:26:39;9.40;;;6.32;;
45686;SDS011;31399;51.176;7.776;2023-08-20T05:29:06;11.70;;;4.53;;
45686;SDS011;31399;51.176;7.776;2023-08-20T05:31:33;8.05;;;4.70;;
45686;SDS011;31399;51.176;7.776;2023-08-20T05:34:00;7.75;;;4.60;;
45686;SDS011;31399;51.176;7.776;2023-08-20T05:36:29;7.97;;;4.78;;
45686;SDS011;31399;51.176;7.776;2023-08-20T05:38:57;5.85;;;4.05;;
45686;SDS011;31399;51.176;7.776;2023-08-20T05:41:23;9.80;;;5.45;;
45686;SDS011;31399;51.176;7.776;2023-08-20T05:43:51;9.23;;;5.90;;
45686;SDS011;31399;51.176;7.776;2023-08-20T05:46:18;12.70;;;6.45;;
45686;SDS011;31399;51.176;7.776;2023-08-20T05:48:45;15.23;;;7.15;;
45686;SDS011;31399;51.176;7.776;2023-08-20T05:51:12;8.32;;;5.82;;
45686;SDS011;31399;51.176;7.776;2023-08-20T05:53:39;11.60;;;6.20;;
45686;SDS011;31399;51.176;7.776;2023-08-20T05:56:08;8.93;;;6.15;;
45686;SDS011;31399;51.176;7.776;2023-08-20T05:58:35;8.80;;;6.10;;
45686;SDS011;31399;51.176;7.776;2023-08-20T06:01:02;10.82;;;6.50;;
45686;SDS011;31399;51.176;7.776;2023-08-20T06:03:30;6.97;;;5.35;;
45686;SDS011;31399;51.176;7.776;2023-08-20T06:05:59;7.07;;;5.32;;
45686;SDS011;31399;51.176;7.776;2023-08-20T06:08:32;9.27;;;5.10;;
45686;SDS011;31399;51.176;7.776;2023-08-20T06:10:58;8.50;;;4.68;;
45686;SDS011;31399;51.176;7.776;2023-08-20T06:13:25;5.80;;;4.82;;
45686;SDS011;31399;51.176;7.776;2023-08-20T06:15:53;9.20;;;5.88;;
45686;SDS011;31399;51.176;7.776;2023-08-20T06:18:20;8.40;;;5.82;;
45686;SDS011;31399;51.176;7.776;2023-08-20T06:20:52;8.18;;;5.60;;
45686;SDS011;31399;51.176;7.776;2023-08-20T06:23:18;11.90;;;5.90;;
45686;SDS011;31399;51.176;7.776;2023-08-20T06:26:08;6.35;;;5.15;;
45686;SDS011;31399;51.176;7.776;2023-08-20T06:28:34;10.15;;;6.10;;
45686;SDS011;31399;51.176;7.776;2023-08-20T06:31:01;8.27;;;5.15;;
45686;SDS011;31399;51.176;7.776;2023-08-20T06:33:29;11.95;;;6.30;;
45686;SDS011;31399;51.176;7.776;2023-08-20T06:35:56;8.18;;;4.55;;
45686;SDS011;31399;51.176;7.776;2023-08-20T06:38:23;8.05;;;5.20;;
45686;SDS011;31399;51.176;7.776;2023-08-20T06:40:50;5.03;;;4.28;;
45686;SDS011;31399;51.176;7.776;2023-08-20T06:43:19;5.05;;;4.15;;
45686;SDS011;31399;51.176;7.776;2023-08-20T06:45:46;4.93;;;4.00;;
45686;SDS011;31399;51.176;7.776;2023-08-20T06:48:13;6.70;;;4.35;;
45686;SDS011;31399;51.176;7.776;2023-08-20T06:50:42;6.40;;;4.05;;
45686;SDS011;31399;51.176;7.776;2023-08-20T06:53:10;10.60;;;6.07;;
45686;SDS011;31399;51.176;7.776;2023-08-20T06:55:36;10.93;;;6.05;;
45686;SDS011;31399;51.176;7.776;2023-08-20T06:58:05;9.10;;;5.55;;
45686;SDS011;31399;51.176;7.776;2023-08-20T07:00:32;7.28;;;5.45;;
45686;SDS011;31399;51.176;7.776;2023-08-20T07:02:59;6.38;;;4.70;;
45686;SDS011;31399;51.176;7.776;2023-08-20T07:05:26;9.55;;;5.40;;
45686;SDS011;31399;51.176;7.776;2023-08-20T07:07:59;8.20;;;4.57;;
45686;SDS011;31399;51.176;7.776;2023-08-20T07:10:28;6.05;;;4.65;;
45686;SDS011;31399;51.176;7.776;2023-08-20T07:12:55;8.70;;;5.65;;
45686;SDS011;31399;51.176;7.776;2023-08-20T07:15:22;6.70;;;5.45;;
45686;SDS011;31399;51.176;7.776;2023-08-20T07:17:49;8.18;;;6.00;;
45686;SDS011;31399;51.176;7.776;2023-08-20T07:20:20;7.28;;;4.85;;
45686;SDS011;31399;51.176;7.776;2023-08-20T07:22:51;8.38;;;5.80;;
45686;SDS011;31399;51.176;7.776;2023-08-20T07:25:30;6.63;;;5.10;;
45686;SDS011;31399;51.176;7.776;2023-08-20T07:27:58;12.48;;;4.90;;
45686;SDS011;31399;51.176;7.776;2023-08-20T07:30:25;7.30;;;4.60;;
45686;SDS011;31399;51.176;7.776;2023-08-20T07:32:52;8.50;;;5.55;;
45686;SDS011;31399;51.176;7.776;2023-08-20T07:35:19;10.63;;;5.13;;
45686;SDS011;31399;51.176;7.776;2023-08-20T07:37:49;12.02;;;7.30;;
45686;SDS011;31399;51.176;7.776;2023-08-20T07:40:15;13.88;;;7.60;;
45686;SDS011;31399;51.176;7.776;2023-08-20T07:42:43;11.45;;;7.03;;
45686;SDS011;31399;51.176;7.776;2023-08-20T07:45:13;13.00;;;6.03;;
45686;SDS011;31399;51.176;7.776;2023-08-20T07:47:42;9.13;;;6.00;;
45686;SDS011;31399;51.176;7.776;2023-08-20T07:50:11;10.25;;;7.28;;
45686;SDS011;31399;51.176;7.776;2023-08-20T07:52:37;16.08;;;7.55;;
45686;SDS011;31399;51.176;7.776;2023-08-20T07:55:06;16.95;;;9.57;;
45686;SDS011;31399;51.176;7.776;2023-08-20T07:57:35;19.60;;;9.02;;
45686;SDS011;31399;51.176;7.776;2023-08-20T08:00:05;13.43;;;6.72;;
45686;SDS011;31399;51.176;7.776;2023-08-20T08:02:32;8.57;;;6.15;;
45686;SDS011;31399;51.176;7.776;2023-08-20T08:05:00;12.35;;;7.95;;
45686;SDS011;31399;51.176;7.776;2023-08-20T08:07:28;11.40;;;6.75;;
45686;SDS011;31399;51.176;7.776;2023-08-20T08:09:55;10.52;;;6.45;;
45686;SDS011;31399;51.176;7.776;2023-08-20T08:12:23;11.77;;;6.55;;
45686;SDS011;31399;51.176;7.776;2023-08-20T08:14:51;8.77;;;5.88;;
45686;SDS011;31399;51.176;7.776;2023-08-20T08:17:19;12.50;;;6.30;;
45686;SDS011;31399;51.176;7.776;2023-08-20T08:19:48;9.38;;;5.50;;
45686;SDS011;31399;51.176;7.776;2023-08-20T08:22:19;9.30;;;5.25;;
45686;SDS011;31399;51.176;7.776;2023-08-20T08:24:46;9.27;;;6.07;;
45686;SDS011;31399;51.176;7.776;2023-08-20T08:27:13;8.70;;;5.22;;
45686;SDS011;31399;51.176;7.776;2023-08-20T08:29:40;10.43;;;5.68;;
45686;SDS011;31399;51.176;7.776;2023-08-20T08:32:07;9.18;;;5.50;;
45686;SDS011;31399;51.176;7.776;2023-08-20T08:34:35;7.68;;;5.18;;
45686;SDS011;31399;51.176;7.776;2023-08-20T08:37:15;7.93;;;5.75;;
45686;SDS011;31399;51.176;7.776;2023-08-20T08:40:14;6.68;;;4.90;;
45686;SDS011;31399;51.176;7.776;2023-08-20T08:43:07;9.00;;;4.40;;
45686;SDS011;31399;51.176;7.776;2023-08-20T08:46:37;8.98;;;4.47;;
45686;SDS011;31399;51.176;7.776;2023-08-20T08:52:57;5.93;;;4.93;;
45686;SDS011;31399;51.176;7.776;2023-08-20T08:59:14;7.45;;;4.25;;
45686;SDS011;31399;51.176;7.776;2023-08-20T09:04:16;5.40;;;4.55;;
45686;SDS011;31399;51.176;7.776;2023-08-20T09:06:52;5.78;;;4.68;;
45686;SDS011;31399;51.176;7.776;2023-08-20T09:09:21;6.70;;;4.95;;
45686;SDS011;31399;51.176;7.776;2023-08-20T09:11:48;8.40;;;4.45;;
45686;SDS011;31399;51.176;7.776;2023-08-20T09:14:23;6.05;;;4.53;;
45686;SDS011;31399;51.176;7.776;2023-08-20T09:16:59;7.47;;;5.13;;
45686;SDS011;31399;51.176;7.776;2023-08-20T09:19:35;9.13;;;5.95;;
45686;SDS011;31399;51.176;7.776;2023-08-20T09:22:05;6.68;;;5.13;;
45686;SDS011;31399;51.176;7.776;2023-08-20T09:24:34;7.78;;;5.47;;
45686;SDS011;31399;51.176;7.776;2023-08-20T09:27:05;11.05;;;6.10;;
45686;SDS011;31399;51.176;7.776;2023-08-20T09:29:34;8.98;;;6.30;;
45686;SDS011;31399;51.176;7.776;2023-08-20T09:32:21;9.05;;;5.50;;
45686;SDS011;31399;51.176;7.776;2023-08-20T09:34:49;5.70;;;5.07;;
45686;SDS011;31399;51.176;7.776;2023-08-20T09:37:18;6.78;;;5.57;;
45686;SDS011;31399;51.176;7.776;2023-08-20T09:39:46;10.15;;;4.90;;
45686;SDS011;31399;51.176;7.776;2023-08-20T09:42:13;6.25;;;5.25;;
45686;SDS011;31399;51.176;7.776;2023-08-20T09:44:44;7.28;;;5.47;;
45686;SDS011;31399;51.176;7.776;2023-08-20T09:47:15;7.18;;;4.95;;
45686;SDS011;31399;51.176;7.776;2023-08-20T09:49:43;6.97;;;5.03;;
45686;SDS011;31399;51.176;7.776;2023-08-20T09:55:00;7.63;;;4.88;;
45686;SDS011;31399;51.176;7.776;2023-08-20T09:57:40;9.70;;;5.97;;
45686;SDS011;31399;51.176;7.776;2023-08-20T10:00:19;10.18;;;6.68;;
45686;SDS011;31399;51.176;7.776;2023-08-20T10:02:47;7.65;;;6.32;;
45686;SDS011;31399;51.176;7.776;2023-08-20T10:05:17;9.98;;;6.07;;
45686;SDS011;31399;51.176;7.776;2023-08-20T10:07:44;7.45;;;4.50;;
45686;SDS011;31399;51.176;7.776;2023-08-20T10:13:05;9.80;;;5.53;;
45686;SDS011;31399;51.176;7.776;2023-08-20T10:15:32;5.18;;;3.90;;
45686;SDS011;31399;51.176;7.776;2023-08-20T10:18:02;8.13;;;4.50;;
45686;SDS011;31399;51.176;7.776;2023-08-20T10:23:02;8.02;;;4.45;;
45686;SDS011;31399;51.176;7.776;2023-08-20T10:25:30;5.20;;;3.75;;
45686;SDS011;31399;51.176;7.776;2023-08-20T10:36:46;4.30;;;3.47;;
45686;SDS011;31399;51.176;7.776;2023-08-20T10:39:20;5.85;;;3.38;;
45686;SDS011;31399;51.176;7.776;2023-08-20T10:42:07;4.35;;;3.13;;
45686;SDS011;31399;51.176;7.776;2023-08-20T10:50:14;5.07;;;2.83;;
45686;SDS011;31399;51.176;7.776;2023-08-20T10:52:55;4.03;;;3.67;;
45686;SDS011;31399;51.176;7.776;2023-08-20T10:55:22;3.70;;;3.40;;
45686;SDS011;31399;51.176;7.776;2023-08-20T10:57:59;5.88;;;3.92;;
45686;SDS011;31399;51.176;7.776;2023-08-20T11:01:13;3.47;;;3.17;;
45686;SDS011;31399;51.176;7.776;2023-08-20T11:03:47;4.93;;;3.65;;
45686;SDS011;31399;51.176;7.776;2023-08-20T11:09:06;4.47;;;3.72;;
45686;SDS011;31399;51.176;7.776;2023-08-20T11:11:33;5.70;;;3.40;;
45686;SDS011;31399;51.176;7.776;2023-08-20T11:14:04;3.75;;;3.30;;
45686;SDS011;31399;51.176;7.776;2023-08-20T11:16:34;3.92;;;3.42;;
45686;SDS011;31399;51.176;7.776;2023-08-20T11:19:04;3.58;;;3.28;;
45686;SDS011;31399;51.176;7.776;2023-08-20T11:21:40;3.35;;;3.05;;
45686;SDS011;31399;51.176;7.776;2023-08-20T11:24:10;3.70;;;3.35;;
45686;SDS011;31399;51.176;7.776;2023-08-20T11:26:40;4.28;;;3.30;;
45686;SDS011;31399;51.176;7.776;2023-08-20T11:29:11;3.45;;;3.15;;
45686;SDS011;31399;51.176;7.776;2023-08-20T11:31:40;4.38;;;3.40;;
45686;SDS011;31399;51.176;7.776;2023-08-20T11:34:11;3.95;;;3.55;;
45686;SDS011;31399;51.176;7.776;2023-08-20T11:36:38;4.95;;;3.45;;
45686;SDS011;31399;51.176;7.776;2023-08-20T11:39:06;6.45;;;3.60;;
45686;SDS011;31399;51.176;7.776;2023-08-20T11:41:38;4.43;;;3.55;;
45686;SDS011;31399;51.176;7.776;2023-08-20T11:44:09;5.70;;;3.35;;
45686;SDS011;31399;51.176;7.776;2023-08-20T11:49:12;3.53;;;3.22;;
45686;SDS011;31399;51.176;7.776;2023-08-20T11:51:43;4.60;;;3.80;;
45686;SDS011;31399;51.176;7.776;2023-08-20T11:54:15;4.30;;;3.40;;
45686;SDS011;31399;51.176;7.776;2023-08-20T11:56:43;4.22;;;3.83;;
45686;SDS011;31399;51.176;7.776;2023-08-20T11:59:12;4.07;;;3.67;;
45686;SDS011;31399;51.176;7.776;2023-08-20T12:01:39;4.55;;;4.13;;
45686;SDS011;31399;51.176;7.776;2023-08-20T12:04:07;3.97;;;3.60;;
45686;SDS011;31399;51.176;7.776;2023-08-20T12:06:36;4.40;;;3.85;;
45686;SDS011;31399;51.176;7.776;2023-08-20T12:09:21;7.00;;;4.00;;
45686;SDS011;31399;51.176;7.776;2023-08-20T12:11:54;4.00;;;3.60;;
45686;SDS011;31399;51.176;7.776;2023-08-20T12:14:24;6.40;;;4.07;;
45686;SDS011;31399;51.176;7.776;2023-08-20T12:16:51;4.70;;;4.22;;
45686;SDS011;31399;51.176;7.776;2023-08-20T12:19:18;4.78;;;4.38;;
45686;SDS011;31399;51.176;7.776;2023-08-20T12:24:18;6.40;;;4.68;;
45686;SDS011;31399;51.176;7.776;2023-08-20T12:26:47;6.50;;;4.50;;
45686;SDS011;31399;51.176;7.776;2023-08-20T12:29:15;7.45;;;3.78;;
45686;SDS011;31399;51.176;7.776;2023-08-20T12:31:42;5.75;;;3.95;;
45686;SDS011;31399;51.176;7.776;2023-08-20T12:34:09;3.85;;;3.35;;
45686;SDS011;31399;51.176;7.776;2023-08-20T12:36:36;5.03;;;3.88;;
45686;SDS011;31399;51.176;7.776;2023-08-20T12:39:03;6.70;;;4.20;;
45686;SDS011;31399;51.176;7.776;2023-08-20T12:41:30;6.53;;;4.90;;
45686;SDS011;31399;51.176;7.776;2023-08-20T12:43:58;5.55;;;4.18;;
45686;SDS011;31399;51.176;7.776;2023-08-20T12:46:25;4.07;;;3.70;;
45686;SDS011;31399;51.176;7.776;2023-08-20T12:48:52;4.93;;;3.88;;
45686;SDS011;31399;51.176;7.776;2023-08-20T12:51:20;5.55;;;4.72;;
45686;SDS011;31399;51.176;7.776;2023-08-20T12:53:47;6.20;;;4.40;;
45686;SDS011;31399;51.176;7.776;2023-08-20T12:56:15;9.73;;;4.35;;
45686;SDS011;31399;51.176;7.776;2023-08-20T12:58:42;4.40;;;3.97;;
45686;SDS011;31399;51.176;7.776;2023-08-20T13:01:10;6.20;;;4.22;;
45686;SDS011;31399;51.176;7.776;2023-08-20T13:03:38;7.22;;;4.13;;
45686;SDS011;31399;51.176;7.776;2023-08-20T13:06:05;5.93;;;4.25;;
45686;SDS011;31399;51.176;7.776;2023-08-20T13:08:33;4.25;;;3.78;;
45686;SDS011;31399;51.176;7.776;2023-08-20T13:11:02;6.68;;;4.18;;
45686;SDS011;31399;51.176;7.776;2023-08-20T13:13:30;4.47;;;3.78;;
45686;SDS011;31399;51.176;7.776;2023-08-20T13:16:00;4.28;;;3.75;;
45686;SDS011;31399;51.176;7.776;2023-08-20T13:18:29;3.88;;;3.50;;
45686;SDS011;31399;51.176;7.776;2023-08-20T13:20:56;4.75;;;3.92;;
45686;SDS011;31399;51.176;7.776;2023-08-20T13:23:23;5.70;;;3.90;;
45686;SDS011;31399;51.176;7.776;2023-08-20T13:25:51;5.25;;;3.95;;
45686;SDS011;31399;51.176;7.776;2023-08-20T13:28:18;4.07;;;3.58;;
45686;SDS011;31399;51.176;7.776;2023-08-20T13:33:42;6.85;;;3.72;;
45686;SDS011;31399;51.176;7.776;2023-08-20T13:36:09;4.10;;;3.70;;
45686;SDS011;31399;51.176;7.776;2023-08-20T13:38:37;4.30;;;3.90;;
45686;SDS011;31399;51.176;7.776;2023-08-20T13:41:04;5.70;;;3.67;;
45686;SDS011;31399;51.176;7.776;2023-08-20T13:43:32;6.57;;;4.03;;
45686;SDS011;31399;51.176;7.776;2023-08-20T13:45:59;7.32;;;3.35;;
45686;SDS011;31399;51.176;7.776;2023-08-20T13:48:27;7.35;;;3.60;;
45686;SDS011;31399;51.176;7.776;2023-08-20T13:50:53;5.00;;;3.80;;
45686;SDS011;31399;51.176;7.776;2023-08-20T13:57:08;4.25;;;3.70;;
45686;SDS011;31399;51.176;7.776;2023-08-20T13:59:34;4.82;;;3.60;;
45686;SDS011;31399;51.176;7.776;2023-08-20T14:05:48;7.05;;;3.78;;
45686;SDS011;31399;51.176;7.776;2023-08-20T14:08:18;7.60;;;3.97;;
45686;SDS011;31399;51.176;7.776;2023-08-20T14:14:13;5.95;;;3.80;;
45686;SDS011;31399;51.176;7.776;2023-08-20T14:20:27;4.40;;;3.35;;
45686;SDS011;31399;51.176;7.776;2023-08-20T14:22:54;4.15;;;3.75;;
45686;SDS011;31399;51.176;7.776;2023-08-20T14:25:21;4.28;;;3.88;;
45686;SDS011;31399;51.176;7.776;2023-08-20T14:31:34;4.72;;;3.67;;
45686;SDS011;31399;51.176;7.776;2023-08-20T14:34:01;8.00;;;3.70;;
45686;SDS011;31399;51.176;7.776;2023-08-20T14:36:28;4.30;;;3.55;;
45686;SDS011;31399;51.176;7.776;2023-08-20T14:38:55;6.97;;;3.53;;
45686;SDS011;31399;51.176;7.776;2023-08-20T14:41:21;7.70;;;3.42;;
45686;SDS011;31399;51.176;7.776;2023-08-20T14:43:48;5.63;;;3.70;;
45686;SDS011;31399;51.176;7.776;2023-08-20T14:46:14;5.20;;;3.40;;
45686;SDS011;31399;51.176;7.776;2023-08-20T14:48:41;4.93;;;3.38;;
45686;SDS011;31399;51.176;7.776;2023-08-20T14:51:09;4.18;;;3.47;;
45686;SDS011;31399;51.176;7.776;2023-08-20T14:53:35;4.25;;;3.58;;
45686;SDS011;31399;51.176;7.776;2023-08-20T14:56:02;3.88;;;3.08;;
45686;SDS011;31399;51.176;7.776;2023-08-20T14:58:29;6.45;;;3.17;;
45686;SDS011;31399;51.176;7.776;2023-08-20T15:00:58;5.43;;;3.33;;
45686;SDS011;31399;51.176;7.776;2023-08-20T15:03:25;3.17;;;2.85;;
45686;SDS011;31399;51.176;7.776;2023-08-20T15:05:52;5.03;;;3.08;;
45686;SDS011;31399;51.176;7.776;2023-08-20T15:08:19;5.07;;;3.35;;
45686;SDS011;31399;51.176;7.776;2023-08-20T15:10:55;5.10;;;3.40;;
45686;SDS011;31399;51.176;7.776;2023-08-20T15:13:24;4.03;;;3.25;;
45686;SDS011;31399;51.176;7.776;2023-08-20T15:15:52;3.45;;;3.10;;
45686;SDS011;31399;51.176;7.776;2023-08-20T15:18:21;4.07;;;3.55;;
45686;SDS011;31399;51.176;7.776;2023-08-20T15:20:58;3.88;;;3.30;;
45686;SDS011;31399;51.176;7.776;2023-08-20T15:23:26;3.58;;;3.28;;
45686;SDS011;31399;51.176;7.776;2023-08-20T15:25:55;5.05;;;3.47;;
45686;SDS011;31399;51.176;7.776;2023-08-20T15:28:22;3.35;;;3.05;;
45686;SDS011;31399;51.176;7.776;2023-08-20T15:30:52;5.13;;;3.60;;
45686;SDS011;31399;51.176;7.776;2023-08-20T15:33:19;4.55;;;3.17;;
45686;SDS011;31399;51.176;7.776;2023-08-20T15:35:49;6.80;;;3.53;;
45686;SDS011;31399;51.176;7.776;2023-08-20T15:38:17;3.78;;;3.33;;
45686;SDS011;31399;51.176;7.776;2023-08-20T15:40:44;6.40;;;3.60;;
45686;SDS011;31399;51.176;7.776;2023-08-20T15:43:15;5.35;;;3.53;;
45686;SDS011;31399;51.176;7.776;2023-08-20T15:45:42;3.88;;;3.42;;
45686;SDS011;31399;51.176;7.776;2023-08-20T15:48:09;4.78;;;3.42;;
45686;SDS011;31399;51.176;7.776;2023-08-20T15:50:39;3.72;;;2.97;;
45686;SDS011;31399;51.176;7.776;2023-08-20T15:53:07;3.85;;;3.47;;
45686;SDS011;31399;51.176;7.776;2023-08-20T15:55:34;3.63;;;3.17;;
45686;SDS011;31399;51.176;7.776;2023-08-20T15:58:02;3.75;;;2.95;;
45686;SDS011;31399;51.176;7.776;2023-08-20T16:00:33;5.18;;;3.50;;
45686;SDS011;31399;51.176;7.776;2023-08-20T16:03:02;5.80;;;3.70;;
45686;SDS011;31399;51.176;7.776;2023-08-20T16:05:31;4.65;;;3.83;;
45686;SDS011;31399;51.176;7.776;2023-08-20T16:08:03;7.20;;;3.90;;
45686;SDS011;31399;51.176;7.776;2023-08-20T16:10:31;3.45;;;3.15;;
45686;SDS011;31399;51.176;7.776;2023-08-20T16:13:15;6.30;;;3.70;;
45686;SDS011;31399;51.176;7.776;2023-08-20T16:15:45;4.82;;;3.88;;
45686;SDS011;31399;51.176;7.776;2023-08-20T16:18:26;4.45;;;3.92;;
45686;SDS011;31399;51.176;7.776;2023-08-20T16:24:04;5.53;;;4.10;;
45686;SDS011;31399;51.176;7.776;2023-08-20T16:26:39;4.15;;;3.70;;
45686;SDS011;31399;51.176;7.776;2023-08-20T16:29:07;6.97;;;3.63;;
45686;SDS011;31399;51.176;7.776;2023-08-20T16:31:34;6.15;;;4.55;;
45686;SDS011;31399;51.176;7.776;2023-08-20T16:34:01;4.90;;;4.35;;
45686;SDS011;31399;51.176;7.776;2023-08-20T16:36:27;4.65;;;3.80;;
45686;SDS011;31399;51.176;7.776;2023-08-20T16:38:54;6.93;;;4.15;;
45686;SDS011;31399;51.176;7.776;2023-08-20T16:41:20;5.82;;;4.07;;
45686;SDS011;31399;51.176;7.776;2023-08-20T16:43:47;4.47;;;3.92;;
45686;SDS011;31399;51.176;7.776;2023-08-20T16:46:14;7.75;;;4.47;;
45686;SDS011;31399;51.176;7.776;2023-08-20T16:48:40;8.43;;;4.95;;
45686;SDS011;31399;51.176;7.776;2023-08-20T16:51:07;5.93;;;4.32;;
45686;SDS011;31399;51.176;7.776;2023-08-20T16:53:37;6.15;;;5.00;;
45686;SDS011;31399;51.176;7.776;2023-08-20T16:56:04;8.43;;;5.70;;
45686;SDS011;31399;51.176;7.776;2023-08-20T16:58:30;6.07;;;5.00;;
45686;SDS011;31399;51.176;7.776;2023-08-20T17:00:57;9.48;;;6.03;;
45686;SDS011;31399;51.176;7.776;2023-08-20T17:03:24;5.55;;;4.93;;
45686;SDS011;31399;51.176;7.776;2023-08-20T17:06:00;8.88;;;5.68;;
45686;SDS011;31399;51.176;7.776;2023-08-20T17:08:28;6.25;;;5.40;;
45686;SDS011;31399;51.176;7.776;2023-08-20T17:11:03;6.50;;;5.00;;
45686;SDS011;31399;51.176;7.776;2023-08-20T17:13:32;8.38;;;5.22;;
45686;SDS011;31399;51.176;7.776;2023-08-20T17:16:03;7.65;;;5.80;;
45686;SDS011;31399;51.176;7.776;2023-08-20T17:18:32;8.90;;;6.22;;
45686;SDS011;31399;51.176;7.776;2023-08-20T17:20:59;8.90;;;5.90;;
45686;SDS011;31399;51.176;7.776;2023-08-20T17:23:33;9.10;;;6.93;;
45686;SDS011;31399;51.176;7.776;2023-08-20T17:25:59;11.43;;;8.73;;
45686;SDS011;31399;51.176;7.776;2023-08-20T17:28:27;10.05;;;8.27;;
45686;SDS011;31399;51.176;7.776;2023-08-20T17:30:54;10.38;;;7.35;;
45686;SDS011;31399;51.176;7.776;2023-08-20T17:33:21;10.93;;;8.68;;
45686;SDS011;31399;51.176;7.776;2023-08-20T17:35:48;11.95;;;8.80;;
45686;SDS011;31399;51.176;7.776;2023-08-20T17:38:17;15.73;;;9.60;;
45686;SDS011;31399;51.176;7.776;2023-08-20T17:40:43;13.48;;;9.18;;
45686;SDS011;31399;51.176;7.776;2023-08-20T17:43:12;12.65;;;10.65;;
45686;SDS011;31399;51.176;7.776;2023-08-20T17:45:39;12.63;;;9.48;;
45686;SDS011;31399;51.176;7.776;2023-08-20T17:48:07;12.23;;;10.52;;
45686;SDS011;31399;51.176;7.776;2023-08-20T17:50:34;14.45;;;11.00;;
45686;SDS011;31399;51.176;7.776;2023-08-20T17:53:02;13.40;;;10.52;;
45686;SDS011;31399;51.176;7.776;2023-08-20T17:55:35;13.45;;;10.55;;
45686;SDS011;31399;51.176;7.776;2023-08-20T17:58:04;16.52;;;11.18;;
45686;SDS011;31399;51.176;7.776;2023-08-20T18:00:33;12.82;;;10.40;;
45686;SDS011;31399;51.176;7.776;2023-08-20T18:03:00;16.20;;;10.35;;
45686;SDS011;31399;51.176;7.776;2023-08-20T18:05:28;14.23;;;10.57;;
45686;SDS011;31399;51.176;7.776;2023-08-20T18:08:00;15.77;;;10.48;;
45686;SDS011;31399;51.176;7.776;2023-08-20T18:10:43;14.70;;;11.52;;
45686;SDS011;31399;51.176;7.776;2023-08-20T18:13:12;15.38;;;12.05;;
45686;SDS011;31399;51.176;7.776;2023-08-20T18:15:40;15.18;;;12.57;;
45686;SDS011;31399;51.176;7.776;2023-08-20T18:18:10;16.58;;;11.05;;
45686;SDS011;31399;51.176;7.776;2023-08-20T18:20:38;16.10;;;11.60;;
45686;SDS011;31399;51.176;7.776;2023-08-20T18:23:06;12.35;;;11.05;;
45686;SDS011;31399;51.176;7.776;2023-08-20T18:25:33;18.73;;;11.75;;
45686;SDS011;31399;51.176;7.776;2023-08-20T18:28:02;18.58;;;12.07;;
45686;SDS011;31399;51.176;7.776;2023-08-20T18:30:32;14.73;;;11.63;;
45686;SDS011;31399;51.176;7.776;2023-08-20T18:33:07;15.10;;;11.50;;
45686;SDS011;31399;51.176;7.776;2023-08-20T18:35:34;16.15;;;11.55;;
45686;SDS011;31399;51.176;7.776;2023-08-20T18:38:04;15.95;;;11.63;;
45686;SDS011;31399;51.176;7.776;2023-08-20T18:40:31;16.02;;;11.48;;
45686;SDS011;31399;51.176;7.776;2023-08-20T18:42:58;15.25;;;11.90;;
45686;SDS011;31399;51.176;7.776;2023-08-20T18:45:25;20.10;;;12.25;;
45686;SDS011;31399;51.176;7.776;2023-08-20T18:47:52;18.40;;;11.73;;
45686;SDS011;31399;51.176;7.776;2023-08-20T18:50:19;17.27;;;13.35;;
45686;SDS011;31399;51.176;7.776;2023-08-20T18:52:47;21.73;;;12.85;;
45686;SDS011;31399;51.176;7.776;2023-08-20T18:55:14;18.80;;;13.00;;
45686;SDS011;31399;51.176;7.776;2023-08-20T18:57:41;17.08;;;12.30;;
45686;SDS011;31399;51.176;7.776;2023-08-20T19:00:08;15.23;;;12.75;;
45686;SDS011;31399;51.176;7.776;2023-08-20T19:02:38;15.05;;;12.25;;
45686;SDS011;31399;51.176;7.776;2023-08-20T19:05:08;13.88;;;11.13;;
45686;SDS011;31399;51.176;7.776;2023-08-20T19:07:35;19.15;;;11.95;;
45686;SDS011;31399;51.176;7.776;2023-08-20T19:10:08;14.35;;;12.20;;
45686;SDS011;31399;51.176;7.776;2023-08-20T19:12:35;15.98;;;11.43;;
45686;SDS011;31399;51.176;7.776;2023-08-20T19:15:02;15.55;;;11.55;;
45686;SDS011;31399;51.176;7.776;2023-08-20T19:17:29;23.23;;;11.18;;
45686;SDS011;31399;51.176;7.776;2023-08-20T19:19:56;12.05;;;10.27;;
45686;SDS011;31399;51.176;7.776;2023-08-20T19:22:23;13.40;;;10.05;;
45686;SDS011;31399;51.176;7.776;2023-08-20T19:24:50;15.60;;;10.30;;
45686;SDS011;31399;51.176;7.776;2023-08-20T19:27:16;12.23;;;8.73;;
45686;SDS011;31399;51.176;7.776;2023-08-20T19:29:43;14.10;;;8.93;;
45686;SDS011;31399;51.176;7.776;2023-08-20T19:32:10;13.35;;;9.00;;
45686;SDS011;31399;51.176;7.776;2023-08-20T19:34:36;15.25;;;8.32;;
45686;SDS011;31399;51.176;7.776;2023-08-20T19:37:03;11.52;;;9.88;;
45686;SDS011;31399;51.176;7.776;2023-08-20T19:39:30;12.00;;;8.75;;
45686;SDS011;31399;51.176;7.776;2023-08-20T19:41:57;14.77;;;9.00;;
45686;SDS011;31399;51.176;7.776;2023-08-20T19:44:23;13.95;;;9.00;;
45686;SDS011;31399;51.176;7.776;2023-08-20T19:46:50;12.82;;;8.75;;
45686;SDS011;31399;51.176;7.776;2023-08-20T19:49:17;15.48;;;8.75;;
45686;SDS011;31399;51.176;7.776;2023-08-20T19:51:44;12.43;;;9.02;;
45686;SDS011;31399;51.176;7.776;2023-08-20T19:54:11;10.43;;;9.18;;
45686;SDS011;31399;51.176;7.776;2023-08-20T19:56:38;14.32;;;9.23;;
45686;SDS011;31399;51.176;7.776;2023-08-20T19:59:05;15.10;;;9.27;;
45686;SDS011;31399;51.176;7.776;2023-08-20T20:01:38;14.25;;;9.63;;
45686;SDS011;31399;51.176;7.776;2023-08-20T20:04:11;14.15;;;8.10;;
45686;SDS011;31399;51.176;7.776;2023-08-20T20:06:38;11.38;;;8.38;;
45686;SDS011;31399;51.176;7.776;2023-08-20T20:09:04;14.77;;;8.25;;
45686;SDS011;31399;51.176;7.776;2023-08-20T20:11:31;13.88;;;7.70;;